Dodson, Texas
Current Conditions -  °F | °C
As of 5:53 AM on Monday 22 Dec 2014 (Local Time) from KCDS Reporting Station
Clear Clear  
Wind Chill: 36°   Ceiling: Unl
Heat Index: 43°   Visibility: 10mi
Dew Point: 32°   Wind: 13mph
Humidity: 65%   Direction: 330°NNW
Pressure: 29.58"   Gusts: NA
Location:  34.77°N, 100.02°W
Report Text: KCDS 221153Z AUTO 33011KT 10SM CLR 06/00 A2958 RMK AO2 SLP008 T00610000 10067 20039 53014
Loading
Personal Weather Stations






























Interactive Weather Map New forecast layout! Learn more

10-Day Weather Forecast

Advertisements
Track Severe Weather on mobile